Time;durP1;ratioP1;P1;durP2;ratioP2;P2;SDS_P1;SDS_P2;PMS_P1;PMS_P2;Temp;Humidity;BMP_temperature;BMP_pressure;BME280_temperature;BME280_humidity;BME280_pressure;Samples;Min_cycle;Max_cycle;Signal;HPM_P1;HPM_P2
2022/11/15 00:01:18;;;;;;;34.63;18.87;;;7.60;99.90;6.80;100571;;;;595785;236;24063;-79
2022/11/15 00:03:46;;;;;;;48.80;29.93;;;7.60;99.90;6.80;100574;;;;590525;237;45622;-78
2022/11/15 00:06:14;;;;;;;49.70;24.40;;;7.60;99.90;6.80;100570;;;;595639;237;24051;-79
2022/11/15 00:08:43;;;;;;;41.17;22.67;;;7.60;99.90;6.80;100563;;;;605072;232;24042;-80
2022/11/15 00:11:11;;;;;;;39.83;20.10;;;7.60;99.90;6.80;100568;;;;595685;237;24293;-78
2022/11/15 00:13:39;;;;;;;37.60;18.97;;;7.60;99.90;6.80;100567;;;;595374;237;24033;-77
2022/11/15 00:16:08;;;;;;;39.33;20.30;;;7.50;99.90;6.80;100561;;;;595690;237;24034;-79
2022/11/15 00:18:35;;;;;;;40.43;20.13;;;7.50;99.90;6.80;100548;;;;595433;237;24026;-79
2022/11/15 00:21:06;;;;;;;45.17;19.57;;;7.50;99.90;6.80;100550;;;;595544;237;24091;-78
2022/11/15 00:23:35;;;;;;;36.67;19.33;;;7.50;99.90;6.80;100547;;;;595477;237;24013;-79
2022/11/15 00:26:03;;;;;;;39.30;19.00;;;7.50;99.90;6.80;100546;;;;595248;237;24047;-79
2022/11/15 00:28:31;;;;;;;47.77;20.47;;;7.50;99.90;6.70;100549;;;;595529;237;24022;-78
2022/11/15 00:31:04;;;;;;;46.60;21.97;;;7.50;99.90;6.70;100548;;;;595429;237;24007;-78
2022/11/15 00:33:35;;;;;;;41.80;20.30;;;7.50;99.90;6.70;100553;;;;595388;237;24064;-78
2022/11/15 00:36:03;;;;;;;44.03;20.50;;;7.40;99.90;6.70;100546;;;;592724;237;24046;-78
2022/11/15 00:38:28;;;;;;;39.47;20.60;;;7.40;99.90;6.60;100551;;;;595213;237;24015;-78
2022/11/15 00:40:56;;;;;;;43.60;19.77;;;7.40;99.90;6.60;100556;;;;595054;237;24079;-78
2022/11/15 00:43:24;;;;;;;52.63;22.10;;;7.40;99.90;6.60;100553;;;;595376;237;24077;-77
2022/11/15 00:45:52;;;;;;;42.60;21.07;;;7.40;99.90;6.70;100541;;;;595499;237;23994;-78
2022/11/15 00:48:23;;;;;;;46.57;20.70;;;7.40;99.90;6.70;100548;;;;595299;237;24001;-78
2022/11/15 00:50:48;;;;;;;39.33;19.97;;;7.40;99.90;6.70;100545;;;;595147;237;24057;-78
2022/11/15 00:56:59;;;;;;;46.73;21.10;;;7.40;99.90;6.60;100535;;;;597054;236;24109;-78
2022/11/15 00:59:27;;;;;;;42.73;20.87;;;7.40;99.90;6.60;100539;;;;596411;236;24202;-78
2022/11/15 01:01:55;;;;;;;41.77;20.73;;;7.30;99.90;6.60;100537;;;;596414;236;23985;-78
2022/11/15 01:04:23;;;;;;;43.37;19.63;;;7.30;99.90;6.60;100539;;;;596017;236;24007;-78
2022/11/15 01:06:51;;;;;;;47.17;21.37;;;7.30;99.90;6.50;100525;;;;596252;236;24026;-81
2022/11/15 01:09:22;;;;;;;53.40;22.40;;;7.30;99.90;6.50;100518;;;;596428;236;24041;-78
2022/11/15 01:11:47;;;;;;;46.87;19.93;;;7.30;99.90;6.50;100519;;;;600938;236;24054;-78
2022/11/15 01:14:15;;;;;;;41.20;19.20;;;7.20;99.90;6.50;100513;;;;595726;237;24062;-79
2022/11/15 01:16:43;;;;;;;45.23;19.60;;;7.20;99.90;6.50;100511;;;;596041;237;24072;-78
2022/11/15 01:19:11;;;;;;;48.83;19.77;;;7.20;99.90;6.50;100507;;;;596185;237;23997;-78
2022/11/15 01:21:39;;;;;;;42.83;18.77;;;7.20;99.90;6.50;100513;;;;596234;237;25056;-78
2022/11/15 01:24:09;;;;;;;40.47;20.00;;;7.20;99.90;6.40;100509;;;;596079;237;24028;-78
2022/11/15 01:26:37;;;;;;;41.10;19.57;;;7.20;99.90;6.40;100497;;;;595827;237;24043;-78
2022/11/15 01:29:08;;;;;;;41.53;18.57;;;7.10;99.90;6.40;100488;;;;596129;237;24022;-78
2022/11/15 01:31:34;;;;;;;39.67;20.00;;;7.10;99.90;6.40;100492;;;;595275;237;24073;-78
2022/11/15 01:34:02;;;;;;;40.40;19.30;;;7.10;99.90;6.40;100486;;;;595874;237;24034;-78
2022/11/15 01:36:30;;;;;;;46.07;19.87;;;7.10;99.90;6.40;100479;;;;595874;237;24019;-78
2022/11/15 01:39:01;;;;;;;44.50;19.70;;;7.10;99.90;6.40;100479;;;;595862;237;24024;-78
2022/11/15 01:41:26;;;;;;;42.20;19.13;;;7.10;99.90;6.40;100474;;;;595673;237;24007;-79
2022/11/15 01:43:57;;;;;;;44.10;20.87;;;7.10;99.90;6.30;100473;;;;595560;237;25052;-78
2022/11/15 01:46:34;;;;;;;47.47;19.77;;;7.10;99.90;6.40;100474;;;;594397;237;23999;-79
2022/11/15 01:49:02;;;;;;;48.97;19.77;;;7.10;99.90;6.40;100464;;;;595777;237;23999;-78
2022/11/15 01:51:31;;;;;;;45.10;20.30;;;7.10;99.90;6.30;100465;;;;594832;237;24004;-78
2022/11/15 01:53:59;;;;;;;50.17;20.10;;;7.10;99.90;6.30;100459;;;;596181;237;23990;-80
2022/11/15 01:56:26;;;;;;;44.87;20.00;;;7.10;99.90;6.30;100461;;;;595821;237;24002;-78
2022/11/15 01:58:54;;;;;;;48.67;20.83;;;7.10;99.90;6.40;100460;;;;596135;237;23987;-79
2022/11/15 02:01:26;;;;;;;48.80;20.83;;;7.10;99.90;6.30;100453;;;;596455;237;24108;-79
2022/11/15 02:03:56;;;;;;;50.57;20.00;;;7.10;99.90;6.30;100448;;;;604834;237;24047;-79
2022/11/15 02:06:24;;;;;;;45.43;18.73;;;7.10;99.90;6.30;100444;;;;596537;236;24056;-79
2022/11/15 02:08:54;;;;;;;43.93;19.20;;;7.10;99.90;6.40;100447;;;;597147;236;24053;-79
2022/11/15 02:11:20;;;;;;;41.80;18.80;;;7.10;99.90;6.30;100441;;;;596793;236;24023;-78
2022/11/15 02:13:47;;;;;;;51.60;21.93;;;7.10;99.90;6.40;100438;;;;596312;236;24058;-78
2022/11/15 02:16:49;;;;;;;58.97;21.70;;;7.10;99.90;6.30;100437;;;;596032;236;24037;-79
2022/11/15 02:19:32;;;;;;;53.93;20.13;;;7.10;99.90;6.30;100429;;;;605312;236;24088;-79
2022/11/15 02:22:15;;;;;;;54.47;21.37;;;7.10;99.90;6.30;100421;;;;595381;236;24025;-79
2022/11/15 02:25:03;;;;;;;40.47;18.13;;;7.00;99.90;6.40;100424;;;;596119;237;24013;-80
2022/11/15 02:27:55;;;;;;;45.60;19.33;;;7.10;99.90;6.40;100422;;;;596211;237;24060;-81
2022/11/15 02:30:41;;;;;;;43.13;19.67;;;7.10;99.90;6.40;100422;;;;597128;237;24042;-79
2022/11/15 02:33:37;;;;;;;44.67;18.33;;;7.10;99.90;6.40;100410;;;;597433;237;24084;-80
2022/11/15 02:36:04;;;;;;;45.83;19.27;;;7.10;99.90;6.40;100415;;;;597156;237;24092;-81
2022/11/15 02:38:39;;;;;;;40.30;19.17;;;7.10;99.90;6.40;100414;;;;585186;241;24091;-79
2022/11/15 02:41:21;;;;;;;50.13;19.20;;;7.10;99.90;6.40;100394;;;;597226;236;24044;-78
2022/11/15 02:43:58;;;;;;;43.57;19.67;;;7.10;99.90;6.40;100412;;;;596617;236;24010;-78
2022/11/15 02:47:14;;;;;;;40.47;17.90;;;7.10;99.90;6.30;100406;;;;598778;236;24061;-79
2022/11/15 02:49:48;;;;;;;50.80;20.53;;;7.10;99.90;6.30;100405;;;;597202;236;24032;-77
2022/11/15 02:52:16;;;;;;;65.57;31.58;;;7.00;99.90;6.20;100400;;;;603598;236;34897;-77
2022/11/15 02:54:44;;;;;;;53.50;24.17;;;6.90;99.90;6.20;100405;;;;598823;236;24019;-77
2022/11/15 02:57:15;;;;;;;45.53;20.27;;;6.90;99.90;6.20;100402;;;;582977;241;24056;-78
2022/11/15 02:59:54;;;;;;;46.50;19.53;;;6.90;99.90;6.20;100400;;;;583586;242;24136;-78
2022/11/15 03:02:56;;;;;;;51.37;21.50;;;6.90;99.90;6.10;100399;;;;601508;235;24143;-79
2022/11/15 03:05:42;;;;;;;42.33;17.73;;;6.90;99.90;6.10;100400;;;;611938;234;24029;-78
2022/11/15 03:08:18;;;;;;;39.57;19.43;;;6.80;99.90;6.00;100391;;;;582953;241;24126;-77
2022/11/15 03:11:08;;;;;;;43.97;19.23;;;6.70;99.90;6.00;100394;;;;596322;237;24132;-80
2022/11/15 03:14:07;;;;;;;54.07;20.57;;;6.80;99.90;5.90;100385;;;;596453;237;24144;-79
2022/11/15 03:16:47;;;;;;;46.37;19.93;;;6.70;99.90;5.90;100380;;;;585115;241;24077;-79
2022/11/15 03:19:22;;;;;;;50.70;19.27;;;6.60;99.90;5.90;100368;;;;597832;236;25095;-77
2022/11/15 03:21:51;;;;;;;56.70;20.90;;;6.60;99.90;5.90;100367;;;;590302;239;24152;-79
2022/11/15 03:24:23;;;;;;;49.70;18.53;;;6.60;99.90;5.90;100367;;;;583411;241;24065;-80
2022/11/15 03:26:48;;;;;;;47.03;19.43;;;6.60;99.90;5.90;100364;;;;596657;236;24135;-77
2022/11/15 03:29:19;;;;;;;54.83;20.30;;;6.60;99.90;5.90;100372;;;;585835;241;24056;-79
2022/11/15 03:31:47;;;;;;;50.67;19.30;;;6.60;99.90;5.90;100376;;;;584689;241;24116;-78
2022/11/15 03:34:36;;;;;;;46.93;20.23;;;6.60;99.90;5.90;100369;;;;583579;242;24066;-78
2022/11/15 03:37:00;;;;;;;49.30;20.47;;;6.60;99.90;5.90;100368;;;;575047;242;24078;-79
2022/11/15 03:39:31;;;;;;;53.77;19.87;;;6.60;99.90;5.90;100362;;;;597901;235;24155;-78
2022/11/15 03:42:20;;;;;;;54.60;19.70;;;6.70;99.90;5.90;100359;;;;600838;235;24115;-79
2022/11/15 03:45:04;;;;;;;54.33;20.60;;;6.70;99.90;6.00;100364;;;;590532;239;25114;-78
2022/11/15 03:47:37;;;;;;;52.27;20.83;;;6.70;99.90;5.90;100368;;;;599817;239;24013;-78
2022/11/15 03:50:08;;;;;;;51.77;19.77;;;6.70;99.90;5.90;100367;;;;599556;236;24065;-78
2022/11/15 03:52:36;;;;;;;57.17;22.03;;;6.70;99.90;6.00;100369;;;;596253;234;24097;-78
2022/11/15 03:55:04;;;;;;;60.93;21.33;;;6.70;99.90;6.00;100361;;;;596052;237;24087;-77
2022/11/15 03:57:32;;;;;;;69.57;32.25;;;6.70;99.90;6.00;100358;;;;590861;237;35021;-78
2022/11/15 04:00:00;;;;;;;61.63;25.23;;;6.70;99.90;6.00;100357;;;;596053;237;24047;-78
2022/11/15 04:02:28;;;;;;;49.80;19.63;;;6.80;99.90;6.00;100357;;;;595873;237;25200;-78
2022/11/15 04:04:56;;;;;;;54.87;20.27;;;6.80;99.90;6.00;100356;;;;596241;237;24028;-78
2022/11/15 04:07:25;;;;;;;41.13;18.87;;;6.80;99.90;6.00;100352;;;;596149;237;24059;-79
2022/11/15 04:10:08;;;;;;;50.17;20.73;;;6.80;99.90;6.00;100354;;;;595920;237;24059;-78
2022/11/15 04:12:40;;;;;;;50.23;19.83;;;6.80;99.90;6.00;100342;;;;596054;237;24067;-79
2022/11/15 04:15:12;;;;;;;56.40;19.23;;;6.80;99.90;6.00;100346;;;;595620;237;24038;-79
2022/11/15 04:17:51;;;;;;;45.37;19.43;;;6.70;99.90;6.00;100354;;;;603276;237;24026;-79
2022/11/15 04:25:57;;;;;;;45.73;17.03;;;6.70;99.90;5.90;100354;;;;595867;237;24042;-78
2022/11/15 04:28:28;;;;;;;45.43;16.83;;;6.70;99.90;5.90;100352;;;;605221;237;24076;-77
2022/11/15 04:30:53;;;;;;;40.23;16.73;;;6.70;99.90;5.90;100356;;;;597525;236;24068;-78
2022/11/15 04:33:21;;;;;;;47.57;18.50;;;6.70;99.90;5.90;100347;;;;596954;236;24062;-79
2022/11/15 04:38:17;;;;;;;48.70;17.17;;;6.70;99.90;5.90;100356;;;;590349;237;24025;-78
2022/11/15 04:40:46;;;;;;;34.73;16.57;;;6.70;99.90;5.90;100366;;;;607102;237;24017;-80
2022/11/15 04:43:14;;;;;;;43.67;16.40;;;6.70;99.90;5.90;100355;;;;597266;237;24065;-79
2022/11/15 04:45:42;;;;;;;43.43;16.33;;;6.70;99.90;5.90;100351;;;;597676;237;24036;-80
2022/11/15 04:48:10;;;;;;;48.27;17.00;;;6.70;99.90;5.90;100345;;;;597173;237;24025;-79
2022/11/15 04:50:38;;;;;;;51.70;18.00;;;6.60;99.90;5.90;100341;;;;597231;237;24067;-79
2022/11/15 04:53:06;;;;;;;43.77;17.27;;;6.60;99.90;5.90;100339;;;;597281;237;24041;-79
2022/11/15 04:55:34;;;;;;;46.40;18.27;;;6.70;99.90;5.90;100335;;;;597645;237;24068;-81
2022/11/15 04:58:04;;;;;;;41.03;17.77;;;6.70;99.90;5.90;100337;;;;596091;237;24106;-81
2022/11/15 05:00:32;;;;;;;43.43;18.53;;;6.60;99.90;5.90;100336;;;;606577;232;24042;-82
2022/11/15 05:05:43;;;;;;;48.00;16.80;;;6.70;99.90;5.90;100325;;;;596658;236;24038;-77
2022/11/15 05:08:15;;;;;;;46.83;17.93;;;6.60;99.90;5.90;100323;;;;597374;237;24065;-78
2022/11/15 05:10:39;;;;;;;49.10;18.00;;;6.60;99.90;5.90;100323;;;;596983;237;24154;-78
2022/11/15 05:13:07;;;;;;;51.73;18.73;;;6.60;99.90;5.90;100314;;;;597519;237;24059;-78
2022/11/15 05:15:35;;;;;;;47.93;18.77;;;6.70;99.90;5.90;100318;;;;597217;237;24075;-81
2022/11/15 05:18:03;;;;;;;43.70;17.40;;;6.70;99.90;5.90;100326;;;;597012;237;24083;-83
2022/11/15 05:20:31;;;;;;;41.63;16.57;;;6.70;99.90;5.90;100322;;;;597086;237;24050;-80
2022/11/15 05:23:01;;;;;;;37.57;15.50;;;6.70;99.90;5.90;100323;;;;597620;237;24098;-81
2022/11/15 05:25:26;;;;;;;42.37;18.03;;;6.70;99.90;5.90;100322;;;;597234;237;24100;-80
2022/11/15 05:27:55;;;;;;;36.00;17.43;;;6.70;99.90;6.00;100321;;;;605891;237;24060;-78
2022/11/15 05:30:23;;;;;;;45.97;17.60;;;6.70;99.90;6.00;100322;;;;595934;237;24031;-78
2022/11/15 05:32:51;;;;;;;42.53;16.53;;;6.80;99.90;6.00;100335;;;;596245;237;24020;-79
2022/11/15 05:35:31;;;;;;;42.30;17.10;;;6.80;99.90;6.00;100335;;;;596192;237;24083;-80
2022/11/15 05:37:59;;;;;;;35.67;15.67;;;6.80;99.90;6.00;100325;;;;595576;237;24094;-79
2022/11/15 05:40:28;;;;;;;40.67;15.87;;;6.80;99.90;6.00;100325;;;;596388;236;25066;-77
2022/11/15 05:42:59;;;;;;;39.57;15.83;;;6.80;99.90;6.00;100326;;;;597451;236;24048;-80
2022/11/15 05:45:27;;;;;;;32.40;14.13;;;6.80;99.90;6.00;100335;;;;597193;236;24075;-78
2022/11/15 05:47:53;;;;;;;28.50;13.60;;;6.70;99.90;5.90;100335;;;;607409;236;24138;-79
2022/11/15 05:50:21;;;;;;;34.37;14.53;;;6.70;99.90;5.90;100335;;;;606265;237;24040;-79
2022/11/15 05:52:50;;;;;;;30.00;14.40;;;6.70;99.90;5.90;100336;;;;596640;237;24105;-78
2022/11/15 05:55:21;;;;;;;36.43;14.83;;;6.70;99.90;5.90;100333;;;;596510;237;24070;-79
2022/11/15 05:57:49;;;;;;;34.20;13.90;;;6.70;99.90;5.90;100336;;;;596673;237;24045;-78
2022/11/15 06:00:17;;;;;;;29.30;13.07;;;6.70;99.90;5.90;100333;;;;596448;237;24035;-78
2022/11/15 06:02:46;;;;;;;31.43;14.63;;;6.70;99.90;5.90;100335;;;;595088;237;24078;-78
2022/11/15 06:05:15;;;;;;;36.33;15.70;;;6.70;99.90;5.90;100332;;;;596574;237;24036;-78
2022/11/15 06:07:44;;;;;;;36.97;15.17;;;6.70;99.90;5.90;100325;;;;596790;237;24070;-79
2022/11/15 06:10:11;;;;;;;33.13;14.60;;;6.70;99.90;6.00;100332;;;;596334;237;24037;-80
2022/11/15 06:12:38;;;;;;;34.70;14.60;;;6.70;99.90;6.00;100331;;;;595726;237;25067;-78
2022/11/15 06:15:06;;;;;;;36.03;14.67;;;6.70;99.90;6.00;100336;;;;595654;237;24028;-78
2022/11/15 06:17:37;;;;;;;35.33;15.73;;;6.70;99.90;6.00;100337;;;;594412;237;24144;-78
2022/11/15 06:20:05;;;;;;;32.00;15.10;;;6.70;99.90;5.90;100339;;;;595513;237;24056;-77
2022/11/15 06:22:30;;;;;;;29.40;13.53;;;6.70;99.90;5.90;100336;;;;595814;237;24042;-78
2022/11/15 06:24:58;;;;;;;34.83;14.70;;;6.70;99.90;5.90;100339;;;;595882;237;24043;-78
2022/11/15 06:27:26;;;;;;;34.03;16.20;;;6.70;99.90;5.90;100337;;;;595995;237;24057;-79
2022/11/15 06:29:54;;;;;;;34.40;13.63;;;6.70;99.90;5.90;100340;;;;596016;237;24015;-79
2022/11/15 06:32:23;;;;;;;38.90;14.07;;;6.70;99.90;6.00;100324;;;;596082;237;24022;-79
2022/11/15 06:34:51;;;;;;;35.40;15.03;;;6.70;99.90;6.00;100331;;;;596041;237;24001;-79
2022/11/15 06:37:19;;;;;;;31.57;14.83;;;6.70;99.90;6.00;100337;;;;595924;237;24057;-79
2022/11/15 06:39:47;;;;;;;29.00;13.87;;;6.70;99.90;6.00;100339;;;;595976;237;24020;-79
2022/11/15 06:42:15;;;;;;;28.63;13.77;;;6.70;99.90;6.00;100342;;;;596182;236;24019;-79
2022/11/15 06:44:43;;;;;;;34.70;14.77;;;6.70;99.90;6.00;100340;;;;596331;237;24023;-80
2022/11/15 06:47:14;;;;;;;36.87;14.10;;;6.80;99.90;6.00;100337;;;;596051;237;24049;-80
2022/11/15 06:49:39;;;;;;;33.50;14.03;;;6.80;99.90;6.00;100337;;;;596189;237;24141;-80
2022/11/15 06:52:07;;;;;;;36.23;14.87;;;6.80;99.90;6.00;100322;;;;606256;235;24060;-80
2022/11/15 06:54:35;;;;;;;35.93;13.30;;;6.80;99.90;6.10;100335;;;;597564;236;24007;-80
2022/11/15 06:57:02;;;;;;;29.93;12.23;;;6.80;99.90;6.10;100330;;;;597259;236;24053;-80
2022/11/15 06:59:30;;;;;;;32.33;13.17;;;6.90;99.90;6.10;100338;;;;596854;236;24093;-79
2022/11/15 07:01:58;;;;;;;33.33;13.43;;;6.90;99.90;6.10;100325;;;;596882;237;24086;-81
2022/11/15 07:04:26;;;;;;;26.93;12.47;;;6.90;99.90;6.10;100333;;;;596979;237;24063;-79
2022/11/15 07:06:55;;;;;;;30.03;13.60;;;6.90;99.90;6.10;100345;;;;586014;241;24096;-82
2022/11/15 07:09:23;;;;;;;29.03;14.53;;;6.90;99.90;6.10;100340;;;;585420;241;24090;-79
2022/11/15 07:11:51;;;;;;;27.30;12.93;;;6.90;99.90;6.10;100344;;;;606310;237;24031;-79
2022/11/15 07:14:19;;;;;;;25.43;13.33;;;6.90;99.90;6.10;100342;;;;596237;237;24037;-79
2022/11/15 07:16:47;;;;;;;28.43;12.43;;;6.90;99.90;6.10;100345;;;;596521;237;24076;-79
2022/11/15 07:19:15;;;;;;;26.70;13.53;;;6.90;99.90;6.10;100343;;;;596500;237;24051;-79
2022/11/15 07:21:44;;;;;;;25.73;13.07;;;6.80;99.90;6.10;100342;;;;597112;237;24022;-79
2022/11/15 07:24:13;;;;;;;26.53;13.37;;;6.80;99.90;6.10;100341;;;;596359;237;24089;-80
2022/11/15 07:26:40;;;;;;;23.73;13.07;;;6.80;99.90;6.10;100346;;;;596335;237;24036;-81
2022/11/15 07:29:08;;;;;;;21.30;10.93;;;6.90;99.90;6.10;100344;;;;596476;237;24050;-80
2022/11/15 07:31:40;;;;;;;33.83;13.73;;;6.90;99.90;6.10;100337;;;;596100;237;24072;-79
2022/11/15 07:34:08;;;;;;;27.93;12.80;;;6.90;99.90;6.20;100344;;;;584848;241;24067;-79
2022/11/15 07:36:33;;;;;;;29.53;14.70;;;7.00;99.90;6.20;100339;;;;582929;242;25138;-81
2022/11/15 07:39:01;;;;;;;28.43;13.73;;;7.00;99.90;6.20;100331;;;;584610;241;24059;-81
2022/11/15 07:41:30;;;;;;;29.63;13.07;;;7.00;99.90;6.20;100335;;;;583986;241;24063;-80
2022/11/15 07:43:58;;;;;;;34.73;15.87;;;7.00;99.90;6.30;100342;;;;595892;237;24063;-78
2022/11/15 07:46:26;;;;;;;26.33;13.00;;;7.00;99.90;6.30;100335;;;;583035;241;24051;-78
2022/11/15 07:48:54;;;;;;;27.57;12.33;;;7.10;99.90;6.30;100335;;;;594164;241;24092;-78
2022/11/15 07:51:22;;;;;;;28.83;14.43;;;7.10;99.90;6.40;100332;;;;595597;237;24035;-78
2022/11/15 07:53:50;;;;;;;28.30;12.67;;;7.20;99.90;6.40;100332;;;;595751;237;24071;-81
2022/11/15 07:56:20;;;;;;;31.67;13.10;;;7.20;99.90;6.40;100333;;;;596300;237;24042;-81
2022/11/15 07:58:46;;;;;;;34.33;14.47;;;7.20;99.90;6.40;100334;;;;596555;237;24038;-80
2022/11/15 08:01:14;;;;;;;35.03;14.87;;;7.20;99.90;6.40;100320;;;;597012;237;24034;-80
2022/11/15 08:03:42;;;;;;;36.63;14.37;;;7.30;99.90;6.50;100335;;;;597531;236;24066;-82
2022/11/15 08:06:10;;;;;;;29.67;14.87;;;7.30;99.90;6.50;100318;;;;598492;233;24052;-83
2022/11/15 08:08:38;;;;;;;25.47;13.03;;;7.30;99.90;6.50;100319;;;;598137;236;24066;-81
2022/11/15 08:11:08;;;;;;;33.27;13.33;;;7.30;99.90;6.50;100334;;;;597620;236;24063;-81
2022/11/15 08:13:34;;;;;;;26.10;13.07;;;7.30;99.90;6.50;100342;;;;583204;242;24069;-82
2022/11/15 08:16:05;;;;;;;29.33;14.23;;;7.30;99.90;6.50;100342;;;;586079;241;24048;-81
2022/11/15 08:18:33;;;;;;;29.23;13.57;;;7.30;99.90;6.50;100335;;;;594459;241;24108;-81
2022/11/15 08:21:00;;;;;;;34.03;14.30;;;7.30;99.90;6.50;100336;;;;584036;242;24040;-82
2022/11/15 08:23:31;;;;;;;27.63;14.27;;;7.30;99.90;6.60;100342;;;;610879;235;24052;-82
2022/11/15 08:26:02;;;;;;;26.83;13.03;;;7.30;99.90;6.60;100337;;;;602000;234;24089;-81
2022/11/15 08:28:27;;;;;;;27.20;13.37;;;7.40;99.90;6.60;100331;;;;596046;237;24062;-80
2022/11/15 08:30:55;;;;;;;25.43;13.63;;;7.40;99.90;6.60;100344;;;;596027;237;24034;-80
2022/11/15 08:33:24;;;;;;;27.30;13.73;;;7.40;99.90;6.60;100339;;;;595789;237;24043;-79
2022/11/15 08:35:51;;;;;;;26.97;13.73;;;7.40;99.90;6.70;100335;;;;595594;237;24068;-79
2022/11/15 08:38:19;;;;;;;29.60;15.17;;;7.40;99.90;6.70;100338;;;;595900;237;24190;-80
2022/11/15 08:40:51;;;;;;;32.63;13.27;;;7.50;99.90;6.70;100346;;;;595722;237;24084;-79
2022/11/15 08:43:16;;;;;;;34.70;14.47;;;7.50;99.90;6.70;100343;;;;595423;237;24081;-79
2022/11/15 08:45:44;;;;;;;31.07;14.10;;;7.50;99.90;6.70;100338;;;;595670;237;24114;-80
2022/11/15 08:48:13;;;;;;;32.27;13.20;;;7.50;99.90;6.70;100340;;;;595790;233;24039;-79
2022/11/15 08:50:43;;;;;;;37.50;14.27;;;7.50;99.90;6.70;100331;;;;596443;237;24154;-79
2022/11/15 08:53:09;;;;;;;33.87;14.53;;;7.50;99.90;6.70;100326;;;;596162;237;24135;-79
2022/11/15 08:55:38;;;;;;;36.17;14.83;;;7.50;99.90;6.80;100330;;;;596609;237;24024;-80
2022/11/15 08:58:06;;;;;;;36.33;14.33;;;7.50;99.90;6.80;100322;;;;596329;237;24093;-78
2022/11/15 09:00:34;;;;;;;32.57;13.17;;;7.50;99.90;6.70;100330;;;;583215;242;24064;-79
2022/11/15 09:03:05;;;;;;;33.90;15.43;;;7.50;99.90;6.70;100326;;;;584519;241;24055;-79
2022/11/15 09:05:33;;;;;;;29.33;14.70;;;7.50;99.90;6.70;100324;;;;583301;241;24060;-79
2022/11/15 09:08:06;;;;;;;33.10;14.57;;;7.50;99.90;6.70;100323;;;;589841;241;24094;-78
2022/11/15 09:10:31;;;;;;;31.77;14.57;;;7.50;99.90;6.70;100322;;;;595190;237;24040;-79
2022/11/15 09:13:00;;;;;;;26.97;13.50;;;7.50;99.90;6.70;100322;;;;595690;237;24126;-80
2022/11/15 09:15:29;;;;;;;29.47;13.50;;;7.50;99.90;6.70;100316;;;;596157;236;24067;-78
2022/11/15 09:18:00;;;;;;;33.03;15.13;;;7.50;99.90;6.70;100316;;;;596739;236;24039;-79
2022/11/15 09:20:29;;;;;;;36.27;14.43;;;7.50;99.90;6.70;100319;;;;596666;236;24150;-78
2022/11/15 09:23:01;;;;;;;27.70;13.93;;;7.50;99.90;6.70;100334;;;;596699;236;24057;-79
2022/11/15 09:25:32;;;;;;;31.47;14.33;;;7.50;99.90;6.80;100325;;;;598104;236;24069;-81
2022/11/15 09:27:59;;;;;;;27.73;13.10;;;7.50;99.90;6.70;100337;;;;595098;241;24174;-79
2022/11/15 09:30:31;;;;;;;28.87;13.87;;;7.50;99.90;6.80;100336;;;;597201;236;24065;-79
2022/11/15 09:32:55;;;;;;;29.40;12.77;;;7.50;99.90;6.70;100333;;;;596633;236;24047;-81
2022/11/15 09:35:23;;;;;;;27.67;14.07;;;7.40;99.90;6.70;100326;;;;596454;237;24068;-78
2022/11/15 09:37:51;;;;;;;28.80;11.47;;;7.40;99.90;6.70;100333;;;;596782;237;24058;-80
2022/11/15 09:40:20;;;;;;;28.27;13.27;;;7.50;99.90;6.70;100319;;;;596459;237;24101;-83
2022/11/15 09:43:24;;;;;;;27.63;11.93;;;7.40;99.90;6.70;100323;;;;584381;241;24073;-80
2022/11/15 09:46:06;;;;;;;30.77;13.30;;;7.40;99.90;6.70;100324;;;;585701;241;24151;-79
2022/11/15 09:48:56;;;;;;;25.47;12.43;;;7.50;99.90;6.70;100325;;;;585405;241;24069;-80
2022/11/15 09:51:32;;;;;;;30.10;12.70;;;7.50;99.90;6.80;100321;;;;585887;241;24119;-81
2022/11/15 09:54:09;;;;;;;26.50;12.97;;;7.60;99.90;6.80;100315;;;;597050;237;24093;-79
2022/11/15 09:56:40;;;;;;;27.93;12.80;;;7.60;99.90;6.80;100315;;;;595382;237;24077;-81
2022/11/15 09:59:36;;;;;;;32.63;14.17;;;7.60;99.90;6.90;100313;;;;594459;241;24084;-80
2022/11/15 10:02:41;;;;;;;27.90;13.47;;;7.60;99.90;6.90;100312;;;;593200;242;24069;-79
2022/11/15 10:05:12;;;;;;;28.47;13.83;;;7.60;99.90;6.80;100306;;;;610386;236;24060;-79
2022/11/15 10:07:55;;;;;;;36.47;14.90;;;7.60;99.90;6.80;100305;;;;600501;236;23981;-79
2022/11/15 10:10:32;;;;;;;32.40;15.47;;;7.50;99.90;6.80;100308;;;;602469;237;25081;-80
2022/11/15 10:13:03;;;;;;;30.90;15.57;;;7.60;99.90;6.80;100300;;;;593364;239;24099;-79
2022/11/15 10:15:27;;;;;;;39.13;21.12;;;7.50;99.90;6.80;100300;;;;581082;241;35198;-79
2022/11/15 10:18:04;;;;;;;34.07;18.27;;;7.50;99.90;6.80;100293;;;;583640;242;24113;-78
2022/11/15 10:20:35;;;;;;;33.67;17.20;;;7.50;99.90;6.80;100289;;;;594531;237;24010;-79
2022/11/15 10:23:03;;;;;;;37.47;16.43;;;7.50;99.90;6.80;100293;;;;596294;237;24124;-80
2022/11/15 10:25:28;;;;;;;30.57;15.97;;;7.60;99.90;6.90;100295;;;;602362;237;24013;-79
2022/11/15 10:28:23;;;;;;;32.43;16.20;;;7.70;99.90;6.90;100284;;;;596710;236;24005;-79
2022/11/15 10:30:51;;;;;;;29.80;15.50;;;7.70;99.90;6.90;100285;;;;606509;236;24113;-79
2022/11/15 10:33:38;;;;;;;35.43;14.63;;;7.70;99.90;6.90;100282;;;;596116;236;24020;-80
2022/11/15 10:36:09;;;;;;;35.00;16.17;;;7.70;99.90;6.90;100288;;;;596434;236;24059;-80
2022/11/15 10:38:50;;;;;;;36.43;16.50;;;7.60;99.90;6.90;100284;;;;594839;236;23992;-80
2022/11/15 10:41:17;;;;;;;39.67;17.37;;;7.70;99.90;6.90;100277;;;;594844;236;24114;-78
2022/11/15 10:43:46;;;;;;;36.70;15.27;;;7.70;99.90;7.00;100285;;;;595857;236;24004;-79
2022/11/15 10:46:27;;;;;;;32.00;13.73;;;7.70;99.90;6.90;100276;;;;594125;236;24044;-79
2022/11/15 10:48:51;;;;;;;30.17;12.80;;;7.70;99.90;7.00;100277;;;;595685;237;24014;-79
2022/11/15 10:51:22;;;;;;;23.90;13.47;;;7.70;99.90;6.90;100274;;;;595801;237;24040;-79
2022/11/15 10:53:54;;;;;;;29.53;13.93;;;7.70;99.90;6.90;100274;;;;594935;237;24058;-78
2022/11/15 10:56:23;;;;;;;29.67;14.67;;;7.70;99.90;6.90;100285;;;;595915;237;24016;-80
2022/11/15 10:58:53;;;;;;;32.33;14.43;;;7.70;99.90;6.90;100284;;;;595780;237;24002;-79
2022/11/15 11:01:24;;;;;;;28.37;13.57;;;7.70;99.90;7.00;100284;;;;596224;237;24064;-79
2022/11/15 11:04:06;;;;;;;22.73;13.03;;;7.70;99.90;7.00;100283;;;;595987;237;24059;-82
2022/11/15 11:06:53;;;;;;;34.90;15.37;;;7.70;99.90;7.00;100280;;;;596479;237;24012;-81
2022/11/15 11:09:36;;;;;;;26.00;13.37;;;7.70;99.90;7.00;100288;;;;596115;237;25069;-79
2022/11/15 11:12:04;;;;;;;29.07;15.03;;;7.70;99.90;7.10;100280;;;;595919;237;24090;-80
2022/11/15 11:14:36;;;;;;;30.07;15.37;;;7.70;99.90;7.10;100277;;;;596267;237;24105;-79
2022/11/15 11:17:07;;;;;;;26.17;15.00;;;7.80;99.90;7.10;100279;;;;605683;237;24120;-79
2022/11/15 11:19:59;;;;;;;21.40;12.03;;;7.80;99.90;7.20;100273;;;;595299;237;24038;-80
2022/11/15 11:22:45;;;;;;;23.20;12.37;;;7.90;99.90;7.20;100273;;;;601281;237;23997;-80
2022/11/15 11:25:37;;;;;;;24.97;12.10;;;7.90;99.90;7.20;100274;;;;596101;237;24039;-80
2022/11/15 11:28:50;;;;;;;31.35;19.25;;;7.90;99.90;7.20;100267;;;;592256;241;35027;-80
2022/11/15 11:31:47;;;;;;;27.77;14.57;;;7.90;99.90;7.10;100264;;;;596879;237;24026;-80
2022/11/15 11:34:24;;;;;;;23.63;13.00;;;7.90;99.90;7.10;100264;;;;596084;237;24067;-80
2022/11/15 11:37:13;;;;;;;28.43;13.77;;;7.80;99.90;7.00;100262;;;;595297;237;24096;-80
2022/11/15 11:40:09;;;;;;;28.17;12.07;;;7.80;99.90;7.00;100264;;;;596910;236;24129;-79
2022/11/15 11:42:58;;;;;;;28.23;13.60;;;7.80;99.90;7.00;100258;;;;597699;236;24067;-79
2022/11/15 11:45:48;;;;;;;22.47;12.33;;;7.70;99.90;7.00;100261;;;;597400;236;24045;-80